Sperry, Missouri
Current Conditions -  °F | °C
As of 8:55 PM on Friday 21 Nov 2014 (Local Time) from KIRK Reporting Station
Overcast Overcast  
Wind Chill: -2°   Ceiling: 1800
Heat Index:   Visibility: 10mi
Dew Point: -2°   Wind: 15mph
Humidity: 70%   Direction: 160°SSE
Pressure: 30.13"   Gusts: NA
Location:  40.149°N, 92.6667°W
Report Text: KIRK 220255Z AUTO 16013KT 10SM OVC018 03/M02 A3013 RMK AO2 SLP215 T00331017 56016
Loading
Personal Weather Stations






























Interactive Weather Map New forecast layout! Learn more

10-Day Weather Forecast

Advertisements
Track Severe Weather on mobile